ADDS METAR Data INFO
IDs: Format: Raw Decoded Include TAF

Data at: 2226 UTC 24 Jun 2018

KMIA 242153Z 15009G19KT 10SM SCT030CB SCT080 BKN110 BKN250 29/23 A3003 RMK AO2 SLP168 CB W-NW AND DSNT SW MOV W T02940228 $
KMIA 242107Z 12016G21KT 10SM SCT033 SCT090 SCT140 BKN250 30/24 A3001 RMK AO2 LTG DSNT SW OCNL LTGICCG DSNT SW-NW CB DSNT SW-NW MOV W T03000244 $
KMIA 242053Z 11014KT 10SM VCTS SCT033 SCT055 SCT140 BKN250 30/23 A3001 RMK AO2 LTG DSNT S-W SLP163 OCNL LTGICCG DSNT SW-NW CB DSNT SW-NW MOV W T03000233 56004 $
KMIA 242037Z 10015G21KT 10SM VCTS SCT035 SCT055 SCT150 BKN250 31/23 A3002 RMK AO2 LTG DSNT SW-NW OCNL LTGICCG DSNT SW-NW CB DSNT SW-NW MOV W T03060233 $
KMIA 242026Z 12015KT 10SM SCT035 SCT055 BKN150 BKN250 31/24 A3002 RMK AO2 LTG DSNT SW-NW OCNL LTGICCG DSNT W-NW CB DSNT W-NW MOV W T03110239 $
KMIA 242011Z 10015KT 10SM VCTS SCT035 SCT055 SCT150 SCT250 31/23 A3002 RMK AO2 LTG DSNT W AND NW OCNL LTGICCG DSNT W-NW CB DSNT W-NW MOV W T03060233 $
KMIA 242000Z 11013KT 10SM SCT035 SCT060 SCT150 SCT250 31/24 A3002 RMK AO2 LTG DSNT W AND NW OCNL LTGICCG DSNT W-NW CB DSNT W-NW MOV W T03110239 $
KMIA 241953Z 12013KT 10SM VCTS SCT035 SCT150 SCT250 31/23 A3002 RMK AO2 LTG DSNT W AND NW TSB1858E47 SLP164 OCNL LTGICCG DSNT W-NW TS MOV W CB DSNT W-NW MOV W T03060233 $
KMIA 241947Z 13013KT 10SM VCTS SCT035 SCT150 SCT250 32/24 A3002 RMK AO2 LTG DSNT W TSB1858E47 OCNL LTGICCG DSNT W-NW TS MOV W CB DSNT W-NW MOV W $
KMIA 241858Z 11011KT 10SM TS SCT040CB SCT150 BKN250 32/23 A3001 RMK AO2 LTG DSNT SW-N TSB58 OCNL LTGICCG VC SW TS VC SW MOV STNRY T03220228 $
KMIA 241853Z 10007KT 10SM VCTS SCT025 SCT150 BKN250 32/23 A3000 RMK AO2 LTG DSNT SW-N TSE51 SLP160 OCNL LTGICCG DSNT SW CB DSNT SW MOV STNRY T03220228 $
KMIA 241753Z 09005KT 10SM FEW025 SCT100 SCT150 BKN250 32/24 A3003 RMK AO2 LTG DSNT SW-N RAE08 SLP167 CB DSNT SW AND NW P0001 60067 T03170244 10317 20244 58011 $
KMIA 241653Z COR 11005KT 9SM RA SCT025CB BKN050 BKN090 BKN250 26/23 A3005 RMK AO2 LTG DSNT W RAB1558 TSE38 SLP174 CB SW AND W MOV W P0066 T02560233 $
KMIA 241644Z 12008KT 9SM -RA SCT025CB BKN050 BKN090 BKN250 26/23 A3005 RMK AO2 LTG DSNT W RAB1558 TSE38 CB SW AND W-NW MOV W TCU DSNT SE P0064 T02560233 $
KMIA 241553Z 04007KT 10SM TS BKN030CB BKN060 BKN140 BKN250 29/23 A3006 RMK AO2 LTG DSNT N TSB38 SLP180 OCNL LTGICCG OHD TS OHD MOV W CB DSNT SE T02940228 $
KMIA 241544Z 35007KT 10SM TS SCT030CB BKN060 BKN250 29/23 A3006 RMK AO2 LTG DSNT N TSB38 OCNL LTGICCG OHD-N-NE TS OHD-N-NE MOV STNRY CB DSNT NE AND SE T02940228 $
KMIA 241453Z 26004KT 10SM SCT030 SCT080 BKN250 30/23 A3006 RMK AO2 SLP179 MDT CU N T03000233 51009 $
KMIA 241353Z 00000KT 10SM SCT025 SCT065 BKN250 29/23 A3006 RMK AO2 SLP177 T02890233 $
KMIA 241253Z 00000KT 10SM FEW025 FEW170 SCT250 28/24 A3004 RMK AO2 SLP173 CB DSNT E AND SE T02830244 $
KMIA 241153Z 32003KT 10SM FEW025 FEW150 SCT250 27/24 A3003 RMK AO2 SLP169 CB DSNT SE AND SW TCU DSNT E 70018 T02720244 10272 20250 53009 $
KMIA 241053Z 00000KT 10SM FEW025 SCT250 26/24 A3001 RMK AO2 SLP162 CB DSNT SE AND SW T02560244 $
KMIA 240953Z 00000KT 10SM SCT022TCU SCT075 SCT140 BKN170 26/24 A3000 RMK AO2 SLP158 TCU E-S T02610244 $
KMIA 240853Z 00000KT 10SM FEW022 FEW042 SCT250 26/24 A3000 RMK AO2 LTG DSNT S SLP160 CB DSNT S T02610244 55007 $
KMIA 240753Z 28003KT 10SM FEW022TCU FEW110 SCT250 26/24 A3000 RMK AO2 SLP158 TCU SW-W T02610239 $
KMIA 240653Z 00000KT 10SM SCT022TCU SCT110 SCT250 26/24 A3001 RMK AO2 SLP161 TCU E-S T02560239 $
KMIA 240553Z 00000KT 10SM FEW028 FEW110 SCT220 26/24 A3002 RMK AO2 SLP167 T02610239 10267 20256 56009 $
KMIA 240453Z 00000KT 10SM FEW028 FEW110 SCT220 26/24 A3003 RMK AO2 SLP169 T02610244 403280233 $
KMIA 240353Z 00000KT 10SM FEW028 FEW110 SCT220 26/24 A3004 RMK AO2 SLP171 T02610244 $
KMIA 240253Z 00000KT 10SM FEW025 FEW070 SCT140 SCT220 27/24 A3005 RMK AO2 SLP176 OCNL LTGIC DSNT NE CB DSNT NE T02670244 52013 $
KMIA 240153Z 05004KT 10SM FEW025 FEW150 BKN250 27/24 A3004 RMK AO2 SLP172 OCNL LTGIC DSNT NE CB DSNT NE T02670244 $
KMIA 240053Z 00000KT 10SM FEW030 FEW150 SCT250 26/25 A3002 RMK AO2 SLP167 OCNL LTGIC DSNT NE CB DSNT NE T02610250 $
KMIA 232353Z 00000KT 10SM FEW030 FEW150 BKN250 26/24 A3001 RMK AO2 SLP163 CB DSNT E 60015 T02610244 10328 20233 50010 $
KMIA 232253Z 00000KT 10SM FEW030 SCT080 SCT120 BKN250 26/24 A3001 RMK AO2 LTG DSNT S RAE19 TSE19 SLP163 OCNL LTGICCG DSNT S-SW TS MOV S CB DSNT S-SW MOV S P0000 T02560244
KMIA 232219Z 15005KT 10SM FEW030 SCT080 SCT120 BKN250 25/23 A3001 RMK AO2 LTG DSNT S AND SW RAE19 TSE19 OCNL LTGICCG DSNT S-SW TS MOV S CB DSNT S-SW MOV S P0000 T02500233
KMIA 232153Z COR 14008KT 10SM -TSRA BR FEW032CB SCT050 SCT090 OVC250 23/23 A3001 RMK AO2 PK WND 02026/2110 WSHFT 2106 LTG DSNT S AND SW RAB26 SLP162 OCNL LTGICCG VC SE-SW TS VC SE-SW MOV SE P0015 T02330233
KMIA 232126Z 09013G19KT 10SM -TSRA SCT032CB BKN041 BKN120 OVC250 26/23 A3002 RMK AO2 PK WND 02026/2110 WSHFT 2106 LTG DSNT N AND NE RAB26 CONS LTGICCG AT AP N-E-S-SW TS AT AP N-E-S-SW MOV SE P0000 T02610228
KMIA 232053Z 27010KT 10SM TS SCT035CB SCT120 BKN250 32/24 A2998 RMK AO2 LTG DSNT N AND NE TSE39B45 SLP152 FRQ LTGICCG VC N-E-S-SW TS VC N-E-S-SW MOV STNRY T03170239 56018
KMIA 232045Z 32009KT 290V350 10SM TS SCT035CB SCT130 BKN250 32/24 A2998 RMK AO2 LTG DSNT N AND NE TSE39B45 OCNL LTGICCG VC N-E-S-SW TS VC N-E-S-SW MOV STNRY T03170239
KMIA 231953Z 26007KT 10SM SCT041 SCT130 BKN250 32/23 A2999 RMK AO2 LTG DSNT N AND S SLP157 CB DSNT NW-N AND S T03220233
KMIA 231853Z VRB04KT 10SM FEW025 FEW110 BKN180 BKN250 31/23 A3002 RMK AO2 SLP165 T03060233
KMIA 231753Z 23004KT 10SM FEW030 FEW110 BKN180 BKN250 29/23 A3003 RMK AO2 RAB07E36 TSB12E42 SLP170 CB DSNT N SE AND W P0000 60003 T02890233 10311 20267 58002
KMIA 231744Z VRB03KT 10SM SCT030 SCT120 BKN150 BKN250 29/24 A3004 RMK AO2 RAB07E36 TSB12E42 CB DSNT N SE AND W P0000 T02890239
KMIA 231714Z 21007KT 10SM -TSRA FEW025CB SCT035 BKN100 BKN140 OVC250 27/24 A3005 RMK AO2 LTG DSNT N AND S AND NW RAB07 TSB12 OCNL LTGIC SW-NW TS SW-NW MOV S CB DSNT S-SW P0000 T02720239
KMIA 231653Z 20007KT 10SM VCTS FEW025CB SCT035 BKN090 BKN180 BKN250 28/24 A3004 RMK AO2 LTG DSNT N AND S AND SW RAB32E33 TSE1554B1555E32B33E45 SLP172 CB SE-SW AND NW MOV STNRY P0003 T02780239
KMIA 231647Z VRB03KT 10SM FEW025CB SCT035 BKN090 BKN180 BKN250 28/24 A3004 RMK AO2 LTG DSNT N AND S AND SW RAB32E33 TSE1554B1555E32B33E45 CB S-SW AND NW-N MOV STNRY CB DSNT SW P0003
KMIA 231553Z 09009KT 9SM TS FEW025CB BKN035 BKN140 OVC210 29/24 A3005 RMK AO2 LTG DSNT ALQDS TSB1459E27B33 SLP175 OCNL LTGICCG N-E-S TS N-E-S MOV S CB DSNT SW T02890239
KMIA 231539Z 00000KT 10SM TS SCT025CB BKN040 BKN090 BKN140 OVC250 31/23 A3004 RMK AO2 LTG DSNT ALQDS TSB1459E27B33 OCNL LTGICCG NE-SE-S TS NE-SE-S MOV S CB N MOV S T03060233
KMIA 231527Z 24003KT 10SM FEW025CB BKN034 BKN090 BKN150 OVC250 30/22 A3004 RMK AO2 LTG DSNT N AND NE AND SW TSB1459E27 CB OHD NE-SE MOV S TCU SW T03000222
KMIA 231459Z 26005KT 10SM TS SCT025CB BKN040 BKN150 BKN250 30/24 A3004 RMK AO2 TSB59 OCNL LTGICCG NE-E TS NE-E MOV STNRY MDT CU W T03000239
KMIA 231453Z COR VRB03KT 10SM VCTS SCT025CB BKN045 BKN150 BKN250 31/24 A3004 RMK AO2 SLP173 CB NE-E MOV STNRY T03060244 53010
KMIA 231353Z VRB03KT 10SM FEW028 SCT043 31/25 A3003 RMK AO2 SLP168 T03110250
KMIA 231253Z 25005KT 10SM FEW022 SCT150 BKN250 29/26 A3002 RMK AO2 SLP165 T02890256 $
KMIA 231153Z 27003KT 10SM FEW030 FEW150 SCT250 28/26 A3001 RMK AO2 SLP163 70043 T02830256 10283 20261 53010 PNO $
KMIA 231053Z COR 00000KT 10SM FEW025 FEW150 SCT250 27/26 A3000 RMK AO2 SLP159 T02670256 $